createdAt,value
2022-11-20T00:01:24.124Z,24.07
2022-11-20T00:03:54.057Z,26.57
2022-11-20T00:06:22.729Z,24.63
2022-11-20T00:08:51.632Z,25.53
2022-11-20T00:11:21.725Z,26.67
2022-11-20T00:13:51.233Z,26.70
2022-11-20T00:16:21.670Z,24.33
2022-11-20T00:18:49.531Z,25.63
2022-11-20T00:21:25.274Z,26.17
2022-11-20T00:23:56.213Z,26.57
2022-11-20T00:26:25.724Z,25.03
2022-11-20T00:28:58.590Z,24.87
2022-11-20T00:31:26.853Z,21.50
2022-11-20T00:33:54.909Z,23.63
2022-11-20T00:36:25.093Z,24.33
2022-11-20T00:38:57.921Z,25.00
2022-11-20T00:41:26.373Z,23.27
2022-11-20T00:43:56.294Z,23.33
2022-11-20T00:46:26.405Z,25.00
2022-11-20T00:48:54.845Z,23.43
2022-11-20T00:51:26.236Z,24.33
2022-11-20T00:53:57.606Z,23.47
2022-11-20T00:56:25.916Z,24.57
2022-11-20T00:58:53.085Z,24.73
2022-11-20T01:01:25.304Z,23.60
2022-11-20T01:03:54.492Z,25.83
2022-11-20T01:06:26.032Z,24.73
2022-11-20T01:08:56.311Z,25.23
2022-11-20T01:11:29.776Z,25.53
2022-11-20T01:13:59.474Z,24.63
2022-11-20T01:16:33.781Z,23.87
2022-11-20T01:19:03.552Z,23.03
2022-11-20T01:21:36.400Z,24.43
2022-11-20T01:24:05.566Z,23.93
2022-11-20T01:26:34.761Z,26.03
2022-11-20T01:29:03.767Z,26.63
2022-11-20T01:31:37.087Z,25.17
2022-11-20T01:34:07.208Z,26.67
2022-11-20T01:36:36.793Z,27.10
2022-11-20T01:39:12.027Z,23.80
2022-11-20T01:41:58.438Z,25.00
2022-11-20T01:44:52.539Z,26.57
2022-11-20T01:47:38.570Z,26.10
2022-11-20T01:50:19.350Z,24.37
2022-11-20T01:52:59.951Z,27.10
2022-11-20T01:55:33.612Z,26.13
2022-11-20T01:58:02.704Z,26.23
2022-11-20T02:00:30.046Z,25.63
2022-11-20T02:03:08.343Z,28.37
2022-11-20T02:05:46.419Z,28.37
2022-11-20T02:08:14.979Z,26.77
2022-11-20T02:10:42.239Z,32.87
2022-11-20T02:13:29.135Z,28.07
2022-11-20T02:15:57.205Z,26.37
2022-11-20T02:18:25.392Z,30.90
2022-11-20T02:21:02.234Z,27.07
2022-11-20T02:23:57.283Z,25.53
2022-11-20T02:26:26.104Z,25.73
2022-11-20T02:28:53.288Z,27.13
2022-11-20T02:31:20.558Z,27.93
2022-11-20T02:33:47.706Z,26.97
2022-11-20T02:36:17.162Z,26.97
2022-11-20T02:38:44.914Z,25.73
2022-11-20T02:41:12.123Z,23.33
2022-11-20T02:43:39.318Z,28.70
2022-11-20T02:46:09.724Z,26.20
2022-11-20T02:48:36.919Z,31.33
2022-11-20T02:51:04.280Z,26.20
2022-11-20T02:53:31.535Z,26.27
2022-11-20T02:55:58.677Z,26.33
2022-11-20T02:58:25.874Z,27.17
2022-11-20T03:00:54.087Z,29.63
2022-11-20T03:03:21.310Z,27.93
2022-11-20T03:05:48.429Z,27.63
2022-11-20T03:08:15.603Z,29.20
2022-11-20T03:10:42.676Z,29.40
2022-11-20T03:13:09.938Z,30.13
2022-11-20T03:15:38.361Z,28.47
2022-11-20T03:18:05.819Z,29.03
2022-11-20T03:20:35.195Z,27.93
2022-11-20T03:23:03.515Z,29.97
2022-11-20T03:25:30.678Z,28.53
2022-11-20T03:27:57.814Z,29.07
2022-11-20T03:30:29.172Z,29.03
2022-11-20T03:32:57.991Z,32.10
2022-11-20T03:35:25.228Z,28.73
2022-11-20T03:37:52.408Z,33.43
2022-11-20T03:40:19.644Z,28.73
2022-11-20T03:42:46.843Z,28.50
2022-11-20T03:45:16.460Z,31.27
2022-11-20T03:47:44.820Z,30.47
2022-11-20T03:50:15.038Z,32.93
2022-11-20T03:52:42.908Z,33.10
2022-11-20T03:55:10.528Z,32.53
2022-11-20T03:57:37.782Z,30.97
2022-11-20T04:00:06.358Z,30.93
2022-11-20T04:02:33.651Z,35.10
2022-11-20T04:05:01.016Z,32.80
2022-11-20T04:07:28.291Z,32.03
2022-11-20T04:09:55.551Z,33.73
2022-11-20T04:12:22.744Z,32.83
2022-11-20T04:14:49.914Z,34.63
2022-11-20T04:17:17.178Z,34.67
2022-11-20T04:19:44.327Z,32.97
2022-11-20T04:22:12.763Z,35.83
2022-11-20T04:24:40.016Z,35.67
2022-11-20T04:27:07.497Z,31.90
2022-11-20T04:29:34.627Z,37.60
2022-11-20T04:32:01.879Z,33.33
2022-11-20T04:34:29.073Z,33.90
2022-11-20T04:36:56.346Z,32.10
2022-11-20T04:39:23.675Z,35.40
2022-11-20T04:42:11.124Z,38.37
2022-11-20T04:44:38.414Z,34.17
2022-11-20T04:47:05.736Z,34.23
2022-11-20T04:49:33.786Z,34.83
2022-11-20T04:52:01.964Z,35.03
2022-11-20T04:54:30.257Z,32.33
2022-11-20T04:56:57.973Z,32.57
2022-11-20T04:59:26.150Z,33.17
2022-11-20T05:01:53.970Z,37.13
2022-11-20T05:04:21.237Z,31.50
2022-11-20T05:06:48.449Z,34.40
2022-11-20T05:09:15.548Z,34.30
2022-11-20T05:11:42.887Z,34.07
2022-11-20T05:14:10.060Z,34.17
2022-11-20T05:16:37.557Z,34.47
2022-11-20T05:19:04.774Z,31.80
2022-11-20T05:21:33.569Z,34.80
2022-11-20T05:24:00.747Z,37.03
2022-11-20T05:26:28.026Z,36.90
2022-11-20T05:28:55.321Z,37.63
2022-11-20T05:31:27.736Z,34.20
2022-11-20T05:33:57.622Z,32.50
2022-11-20T05:36:25.911Z,37.13
2022-11-20T05:38:58.058Z,37.17
2022-11-20T05:41:28.840Z,35.10
2022-11-20T05:43:58.811Z,39.63
2022-11-20T05:46:28.977Z,36.33
2022-11-20T05:48:58.482Z,35.57
2022-11-20T05:51:26.527Z,38.97
2022-11-20T05:53:53.837Z,37.07
2022-11-20T05:56:23.214Z,37.90
2022-11-20T05:58:51.408Z,38.50
2022-11-20T06:01:22.725Z,41.87
2022-11-20T06:03:52.023Z,36.20
2022-11-20T06:06:20.692Z,40.53
2022-11-20T06:08:48.699Z,43.30
2022-11-20T06:11:16.650Z,42.30
2022-11-20T06:13:44.047Z,37.10
2022-11-20T06:16:13.241Z,37.27
2022-11-20T06:18:40.443Z,38.20
2022-11-20T06:21:11.179Z,38.90
2022-11-20T06:23:39.347Z,36.93
2022-11-20T06:26:09.714Z,38.03
2022-11-20T06:28:37.403Z,37.77
2022-11-20T06:31:06.098Z,36.73
2022-11-20T06:33:33.874Z,38.37
2022-11-20T06:36:05.863Z,44.20
2022-11-20T06:38:39.850Z,33.53
2022-11-20T06:41:08.917Z,39.90
2022-11-20T06:43:36.053Z,40.77
2022-11-20T06:46:04.064Z,39.63
2022-11-20T06:48:31.659Z,35.83
2022-11-20T06:50:59.280Z,36.93
2022-11-20T06:53:27.247Z,43.93
2022-11-20T06:55:59.078Z,39.80
2022-11-20T06:58:33.123Z,39.90
2022-11-20T07:01:01.573Z,41.07
2022-11-20T07:03:28.763Z,49.40
2022-11-20T07:05:57.573Z,50.23
2022-11-20T07:08:27.080Z,88.73
2022-11-20T07:11:00.698Z,48.13
2022-11-20T07:13:29.423Z,39.43
2022-11-20T07:16:00.200Z,44.90
2022-11-20T07:18:27.424Z,45.50
2022-11-20T07:20:54.656Z,43.77
2022-11-20T07:23:21.920Z,42.07
2022-11-20T07:25:49.042Z,41.13
2022-11-20T07:28:16.262Z,42.07
2022-11-20T07:30:43.482Z,43.80
2022-11-20T07:33:10.683Z,44.10
2022-11-20T07:35:37.920Z,39.60
2022-11-20T07:38:05.106Z,41.83
2022-11-20T07:40:32.348Z,38.40
2022-11-20T07:42:59.518Z,39.57
2022-11-20T07:45:26.776Z,37.17
2022-11-20T07:47:53.964Z,40.30
2022-11-20T07:50:21.241Z,40.70
2022-11-20T07:52:48.880Z,38.77
2022-11-20T07:55:16.442Z,40.17
2022-11-20T07:57:43.698Z,36.00
2022-11-20T08:00:13.007Z,42.70
2022-11-20T08:02:41.734Z,37.90
2022-11-20T08:05:11.025Z,41.43
2022-11-20T08:07:40.551Z,38.20
2022-11-20T08:10:09.764Z,42.37
2022-11-20T08:12:55.789Z,39.63
2022-11-20T08:15:22.933Z,38.40
2022-11-20T08:18:08.626Z,37.63
2022-11-20T08:20:37.581Z,41.47
2022-11-20T08:23:07.723Z,40.70
2022-11-20T08:25:39.221Z,40.40
2022-11-20T08:28:18.706Z,39.23
2022-11-20T08:30:47.495Z,42.73
2022-11-20T08:33:14.689Z,40.47
2022-11-20T08:35:42.846Z,37.20
2022-11-20T08:38:10.709Z,43.87
2022-11-20T08:40:37.954Z,39.30
2022-11-20T08:43:05.471Z,37.87
2022-11-20T08:45:35.015Z,39.67
2022-11-20T08:48:04.475Z,38.17
2022-11-20T08:50:34.077Z,38.43
2022-11-20T08:53:07.658Z,35.97
2022-11-20T08:55:38.367Z,38.23
2022-11-20T08:58:07.235Z,38.70
2022-11-20T09:00:35.761Z,39.73
2022-11-20T09:03:03.399Z,39.17
2022-11-20T09:05:30.772Z,39.37
2022-11-20T09:08:01.216Z,36.87
2022-11-20T09:10:29.435Z,41.43
2022-11-20T09:12:57.359Z,39.80
2022-11-20T09:15:25.838Z,39.20
2022-11-20T09:17:53.871Z,60.53
2022-11-20T09:20:21.310Z,38.57
2022-11-20T09:22:48.642Z,56.83
2022-11-20T09:25:16.257Z,44.73
2022-11-20T09:27:45.172Z,43.67
2022-11-20T09:30:13.867Z,39.67
2022-11-20T09:32:41.521Z,41.40
2022-11-20T09:35:09.458Z,48.60
2022-11-20T09:37:36.687Z,43.43
2022-11-20T09:40:04.208Z,47.70
2022-11-20T09:42:53.210Z,41.50
2022-11-20T09:45:24.696Z,38.93
2022-11-20T09:48:13.175Z,38.17
2022-11-20T09:51:28.355Z,44.23
2022-11-20T09:54:15.696Z,42.10
2022-11-20T09:56:51.523Z,41.43
2022-11-20T09:59:41.669Z,42.37
2022-11-20T10:02:24.238Z,45.17
2022-11-20T10:05:20.730Z,47.67
2022-11-20T10:08:18.843Z,43.20
2022-11-20T10:11:02.652Z,43.10
2022-11-20T10:13:30.857Z,40.37
2022-11-20T10:16:21.400Z,40.47
2022-11-20T10:19:19.513Z,39.73
2022-11-20T10:21:59.051Z,50.37
2022-11-20T10:24:39.200Z,43.70
2022-11-20T10:27:37.627Z,46.13
2022-11-20T10:30:12.316Z,41.27
2022-11-20T10:32:47.646Z,45.00
2022-11-20T10:35:35.450Z,48.83
2022-11-20T10:38:10.345Z,49.57
2022-11-20T10:40:45.255Z,45.70
2022-11-20T10:43:27.556Z,44.70
2022-11-20T10:46:14.205Z,42.80
2022-11-20T10:48:46.217Z,45.80
2022-11-20T10:51:23.860Z,41.97
2022-11-20T10:54:49.108Z,41.40
2022-11-20T10:57:44.280Z,42.80
2022-11-20T11:00:14.795Z,44.17
2022-11-20T11:02:48.238Z,41.80
2022-11-20T11:05:46.362Z,40.70
2022-11-20T11:08:19.643Z,65.70
2022-11-20T11:11:00.308Z,68.63
2022-11-20T11:13:30.135Z,84.87
2022-11-20T11:15:58.551Z,64.83
2022-11-20T11:18:36.812Z,46.93
2022-11-20T11:21:06.039Z,41.17
2022-11-20T11:23:43.211Z,42.93
2022-11-20T11:26:25.567Z,38.37
2022-11-20T11:29:01.659Z,42.13
2022-11-20T11:31:34.688Z,41.63
2022-11-20T11:34:16.459Z,41.70
2022-11-20T11:36:53.324Z,38.77
2022-11-20T11:39:22.530Z,39.27
2022-11-20T11:41:52.334Z,38.83
2022-11-20T11:44:41.771Z,40.70
2022-11-20T11:47:44.216Z,40.93
2022-11-20T11:50:11.288Z,39.73
2022-11-20T11:52:57.356Z,41.83
2022-11-20T11:55:36.718Z,36.57
2022-11-20T11:58:20.656Z,37.37
2022-11-20T12:01:19.252Z,41.27
2022-11-20T12:04:18.360Z,40.97
2022-11-20T12:06:51.374Z,38.70
2022-11-20T12:09:21.768Z,39.20
2022-11-20T12:12:16.547Z,39.83
2022-11-20T12:14:46.342Z,41.73
2022-11-20T12:17:15.312Z,39.40
2022-11-20T12:19:43.182Z,42.47
2022-11-20T12:22:47.072Z,40.97
2022-11-20T12:25:26.187Z,36.77
2022-11-20T12:27:53.336Z,39.33
2022-11-20T12:30:22.186Z,36.83
2022-11-20T12:33:26.841Z,38.80
2022-11-20T12:36:15.610Z,39.03
2022-11-20T12:38:58.343Z,40.70
2022-11-20T12:42:18.507Z,42.67
2022-11-20T12:45:03.993Z,37.00
2022-11-20T12:47:43.378Z,39.77
2022-11-20T12:51:08.462Z,40.80
2022-11-20T12:53:45.241Z,42.20
2022-11-20T12:56:59.462Z,69.33
2022-11-20T12:59:51.708Z,44.57
2022-11-20T13:02:21.876Z,46.03
2022-11-20T13:05:06.279Z,40.93
2022-11-20T13:07:36.280Z,42.57
2022-11-20T13:10:07.629Z,43.55
2022-11-20T13:12:47.789Z,41.50
2022-11-20T13:15:26.788Z,41.57
2022-11-20T13:18:02.110Z,39.53
2022-11-20T13:20:30.805Z,39.90
2022-11-20T13:22:58.865Z,43.43
2022-11-20T13:25:37.898Z,40.87
2022-11-20T13:28:09.784Z,43.93
2022-11-20T13:30:49.574Z,40.37
2022-11-20T13:33:33.275Z,41.23
2022-11-20T13:36:21.294Z,40.93
2022-11-20T13:38:51.589Z,45.73
2022-11-20T13:41:35.131Z,43.23
2022-11-20T13:44:12.328Z,61.50
2022-11-20T13:46:45.665Z,83.07
2022-11-20T13:49:43.916Z,65.90
2022-11-20T13:52:21.301Z,47.23
2022-11-20T13:55:03.437Z,44.67
2022-11-20T13:57:36.661Z,48.13
2022-11-20T14:00:15.021Z,43.47
2022-11-20T14:02:43.979Z,42.57
2022-11-20T14:05:24.890Z,42.80
2022-11-20T14:07:54.211Z,43.80
2022-11-20T14:10:32.535Z,49.60
2022-11-20T14:13:11.052Z,50.67
2022-11-20T14:15:44.821Z,50.97
2022-11-20T14:18:15.986Z,50.40
2022-11-20T14:20:44.707Z,62.10
2022-11-20T14:23:12.594Z,55.43
2022-11-20T14:25:44.460Z,50.63
2022-11-20T14:28:20.258Z,64.80
2022-11-20T14:30:50.062Z,58.00
2022-11-20T14:33:18.313Z,56.13
2022-11-20T14:35:48.868Z,55.63
2022-11-20T14:38:19.939Z,57.23
2022-11-20T14:40:47.694Z,69.30
2022-11-20T14:43:29.841Z,62.33
2022-11-20T14:46:09.503Z,53.30
2022-11-20T14:48:50.252Z,67.47
2022-11-20T14:51:32.211Z,50.33
2022-11-20T14:54:20.001Z,50.83
2022-11-20T14:57:04.772Z,48.13
2022-11-20T14:59:35.609Z,48.60
2022-11-20T15:02:10.129Z,51.43
2022-11-20T15:05:00.859Z,43.27
2022-11-20T15:07:31.024Z,46.03
2022-11-20T15:10:02.472Z,48.37
2022-11-20T15:12:31.638Z,53.93
2022-11-20T15:14:59.609Z,55.67
2022-11-20T15:17:27.274Z,55.97
2022-11-20T15:19:56.455Z,53.97
2022-11-20T15:22:23.706Z,60.43
2022-11-20T15:25:00.671Z,64.03
2022-11-20T15:27:31.444Z,64.60
2022-11-20T15:29:58.779Z,60.87
2022-11-20T15:32:26.201Z,60.23
2022-11-20T15:34:53.444Z,57.43
2022-11-20T15:37:20.674Z,59.13
2022-11-20T15:39:47.982Z,60.33
2022-11-20T15:42:15.313Z,55.63
2022-11-20T15:44:42.483Z,55.43
2022-11-20T15:47:10.954Z,53.63
2022-11-20T15:49:38.169Z,53.10
2022-11-20T15:52:05.428Z,63.67
2022-11-20T15:54:33.045Z,59.77
2022-11-20T15:57:01.825Z,51.77
2022-11-20T15:59:28.994Z,52.43
2022-11-20T16:01:56.401Z,55.87
2022-11-20T16:04:24.252Z,61.70
2022-11-20T16:06:51.747Z,64.40
2022-11-20T16:09:18.988Z,62.50
2022-11-20T16:11:46.102Z,71.03
2022-11-20T16:14:31.822Z,66.77
2022-11-20T16:17:00.085Z,65.70
2022-11-20T16:19:27.182Z,64.27
2022-11-20T16:21:57.054Z,63.13
2022-11-20T16:24:27.219Z,64.47
2022-11-20T16:26:55.582Z,59.07
2022-11-20T16:29:24.143Z,57.03
2022-11-20T16:31:51.282Z,54.20
2022-11-20T16:34:19.806Z,62.30
2022-11-20T16:36:48.273Z,60.57
2022-11-20T16:39:21.943Z,56.30
2022-11-20T16:41:50.730Z,54.57
2022-11-20T16:44:17.869Z,56.67
2022-11-20T16:46:45.063Z,56.57
2022-11-20T16:49:14.379Z,56.93
2022-11-20T16:51:43.033Z,52.87
2022-11-20T16:54:13.048Z,55.20
2022-11-20T16:56:43.098Z,50.47
2022-11-20T16:59:10.942Z,51.03
2022-11-20T17:01:40.364Z,48.70
2022-11-20T17:04:07.954Z,57.47
2022-11-20T17:06:37.603Z,61.50
2022-11-20T17:09:05.487Z,57.47
2022-11-20T17:11:33.727Z,69.07
2022-11-20T17:14:03.698Z,69.13
2022-11-20T17:16:31.727Z,64.33
2022-11-20T17:19:03.046Z,64.07
2022-11-20T17:21:31.969Z,63.30
2022-11-20T17:24:04.770Z,64.93
2022-11-20T17:26:32.517Z,61.77
2022-11-20T17:29:02.580Z,63.60
2022-11-20T17:31:31.350Z,60.73
2022-11-20T17:34:00.464Z,67.57
2022-11-20T17:36:29.320Z,72.23
2022-11-20T17:38:58.370Z,70.60
2022-11-20T17:41:28.310Z,73.57
2022-11-20T17:44:00.820Z,68.53
2022-11-20T17:46:32.962Z,73.37
2022-11-20T17:49:01.554Z,75.23
2022-11-20T17:51:31.501Z,80.23
2022-11-20T17:54:01.450Z,84.70
2022-11-20T17:56:52.540Z,80.37
2022-11-20T17:59:23.205Z,85.27
2022-11-20T18:01:50.572Z,81.70
2022-11-20T18:04:18.131Z,77.83
2022-11-20T18:06:45.499Z,78.83
2022-11-20T18:09:13.247Z,80.37
2022-11-20T18:11:42.544Z,77.70
2022-11-20T18:14:36.744Z,80.47
2022-11-20T18:17:11.998Z,79.70
2022-11-20T18:19:51.560Z,73.73
2022-11-20T18:22:29.749Z,66.20
2022-11-20T18:24:56.903Z,67.87
2022-11-20T18:27:24.234Z,68.20
2022-11-20T18:29:54.136Z,74.67
2022-11-20T18:32:22.930Z,73.90
2022-11-20T18:34:51.724Z,73.90
2022-11-20T18:37:19.697Z,68.73
2022-11-20T18:39:46.949Z,63.50
2022-11-20T18:42:35.318Z,65.50
2022-11-20T18:45:04.643Z,63.80
2022-11-20T18:47:36.881Z,62.63
2022-11-20T18:50:06.567Z,61.03
2022-11-20T18:52:48.350Z,60.33
2022-11-20T18:55:15.922Z,62.97
2022-11-20T18:57:43.236Z,82.03
2022-11-20T19:00:11.330Z,84.20
2022-11-20T19:02:42.199Z,78.03
2022-11-20T19:05:12.842Z,72.13
2022-11-20T19:07:40.331Z,71.43
2022-11-20T19:10:08.196Z,67.00
2022-11-20T19:12:35.405Z,69.43
2022-11-20T19:15:02.541Z,67.43
2022-11-20T19:17:29.674Z,74.30
2022-11-20T19:19:57.890Z,67.50
2022-11-20T19:22:24.965Z,75.53
2022-11-20T19:24:52.260Z,72.63
2022-11-20T19:27:19.652Z,72.60
2022-11-20T19:29:46.839Z,78.10
2022-11-20T19:32:14.018Z,94.37
2022-11-20T19:34:41.664Z,84.97
2022-11-20T19:37:10.046Z,89.30
2022-11-20T19:39:37.761Z,88.37
2022-11-20T19:42:05.001Z,75.37
2022-11-20T19:44:35.660Z,71.90
2022-11-20T19:47:08.964Z,69.10
2022-11-20T19:49:41.830Z,62.13
2022-11-20T19:52:09.551Z,61.20
2022-11-20T19:54:37.257Z,67.27
2022-11-20T19:57:04.445Z,63.60
2022-11-20T19:59:31.647Z,64.13
2022-11-20T20:01:59.214Z,60.83
2022-11-20T20:04:27.207Z,59.47
2022-11-20T20:06:54.410Z,58.30
2022-11-20T20:09:24.058Z,56.67
2022-11-20T20:11:51.660Z,61.27
2022-11-20T20:14:19.477Z,58.10
2022-11-20T20:16:47.180Z,58.03
2022-11-20T20:19:16.368Z,58.40
2022-11-20T20:21:44.562Z,59.13
2022-11-20T20:24:12.520Z,54.30
2022-11-20T20:26:40.192Z,59.80
2022-11-20T20:29:07.433Z,62.33
2022-11-20T20:31:35.294Z,59.57
2022-11-20T20:34:05.484Z,58.87
2022-11-20T20:36:32.652Z,61.13
2022-11-20T20:38:59.890Z,58.53
2022-11-20T20:41:27.668Z,61.17
2022-11-20T20:44:13.791Z,59.17
2022-11-20T20:46:41.562Z,52.00
2022-11-20T20:49:08.755Z,53.77
2022-11-20T20:51:36.233Z,53.47
2022-11-20T20:54:04.256Z,56.63
2022-11-20T20:56:31.802Z,50.03
2022-11-20T20:58:59.024Z,55.90
2022-11-20T21:01:28.941Z,50.40
2022-11-20T21:03:57.566Z,54.70
2022-11-20T21:06:26.042Z,59.13
2022-11-20T21:08:54.274Z,61.27
2022-11-20T21:11:22.413Z,55.63
2022-11-20T21:13:50.282Z,59.10
2022-11-20T21:16:19.444Z,56.57
2022-11-20T21:18:47.093Z,52.60
2022-11-20T21:21:34.858Z,58.13
2022-11-20T21:24:02.405Z,54.10
2022-11-20T21:26:29.590Z,56.37
2022-11-20T21:28:59.850Z,57.03
2022-11-20T21:31:28.658Z,57.07
2022-11-20T21:33:57.460Z,51.63
2022-11-20T21:36:27.144Z,55.70
2022-11-20T21:38:55.742Z,54.70
2022-11-20T21:41:24.619Z,56.33
2022-11-20T21:44:23.495Z,53.73
2022-11-20T21:46:42.784Z,57.37
2022-11-20T21:49:10.230Z,53.77
2022-11-20T21:51:38.144Z,59.07
2022-11-20T21:54:05.773Z,60.77
2022-11-20T21:56:34.077Z,58.93
2022-11-20T21:59:01.397Z,51.37
2022-11-20T22:01:30.539Z,48.20
2022-11-20T22:04:00.680Z,65.93
2022-11-20T22:06:34.981Z,63.60
2022-11-20T22:09:02.853Z,59.63
2022-11-20T22:11:30.346Z,58.70
2022-11-20T22:14:16.747Z,51.73
2022-11-20T22:16:44.293Z,57.83
2022-11-20T22:19:12.165Z,58.37
2022-11-20T22:21:41.849Z,50.93
2022-11-20T22:24:13.928Z,53.40
2022-11-20T22:26:41.798Z,51.07
2022-11-20T22:29:15.964Z,52.73
2022-11-20T22:31:43.653Z,50.40
2022-11-20T22:34:12.720Z,51.17
2022-11-20T22:36:41.499Z,48.30
2022-11-20T22:39:09.616Z,50.17
2022-11-20T22:41:37.152Z,46.37
2022-11-20T22:44:07.093Z,48.77
2022-11-20T22:46:36.918Z,43.90
2022-11-20T22:49:07.061Z,48.77
2022-11-20T22:51:36.714Z,45.17
2022-11-20T22:54:04.548Z,40.53
2022-11-20T22:56:32.748Z,42.53
2022-11-20T22:58:59.889Z,42.37
2022-11-20T23:01:30.119Z,42.13
2022-11-20T23:04:03.385Z,40.23
2022-11-20T23:06:34.380Z,43.83
2022-11-20T23:09:02.878Z,39.53
2022-11-20T23:11:31.618Z,38.87
2022-11-20T23:14:05.995Z,39.80
2022-11-20T23:16:33.969Z,40.10
2022-11-20T23:19:06.726Z,41.80
2022-11-20T23:21:35.793Z,42.30
2022-11-20T23:24:04.278Z,39.33
2022-11-20T23:26:34.454Z,43.93
2022-11-20T23:29:02.285Z,46.47
2022-11-20T23:31:31.325Z,49.37
2022-11-20T23:33:59.809Z,47.77
2022-11-20T23:36:27.109Z,47.97
2022-11-20T23:38:54.257Z,43.67
2022-11-20T23:41:21.450Z,47.40
2022-11-20T23:43:49.674Z,45.67
2022-11-20T23:46:17.139Z,45.60
2022-11-20T23:48:45.596Z,44.00
2022-11-20T23:51:14.078Z,48.67
2022-11-20T23:53:41.773Z,46.07
2022-11-20T23:56:14.706Z,46.93
2022-11-20T23:58:43.338Z,47.90
